Aérodrome :
LOGIN :

S'inscrire | Disclaimer

   EN    FR    IT 

 










Légende :    VFR   VFR Marginal   IFR   IFR Intensif   IFR Très Intensif
Visi : 
Plafond : 
>= 8 km
>= 3000ft
5 à 8 km
1000 à 3000 ft
1500m à 5 km
500 à 1000 ft
800 à 1500m
200 à 500 ft
< 800m
< 200 ft
Symboles :   Orages  Brouillard  Fortes neiges  Fortes précipitations  Vent > 20 kt
SIGMETs :   Divers  Orages  Givrage  Turbulence  Onde Orograph.  Cendres Volcan.






- Altitude de l'aérodrome : 299 ft
- Code IATA : EDM


LFRI - La Roche Sur Yon - Les Ajoncs

DERNIER METAR :
  • 171300Z AUTO 26013KT 220V290 9999 FEW029/// SCT088/// ///TCU 11/06 Q1023 TEMPO 23015G30KT 4000 SHRA SCT020CB

METARs EXPIRÉS :
  • 171230Z AUTO 27012KT 9999 FEW030/// SCT056/// BKN100/// ///CB 10/07 Q1023 TEMPO 23015G30KT 4000 SHRA
  • 171200Z AUTO 26017KT 230V290 9999 FEW025/// SCT031/// BKN037/// ///TCU 12/06 Q1023 TEMPO 23015G30KT 4000 SHRA SCT020CB
  • 171130Z AUTO 25016KT 9999 BKN027 BKN035 BKN043 12/07 Q1023 TEMPO 23015G30KT 4000 SHRA SCT020CB
  • 171100Z AUTO 25016KT 9999 BKN029 12/06 Q1022 TEMPO 23015G25KT 4000 SHRA SCT020TCU
  • 171030Z AUTO 24014KT 200V270 CAVOK 12/06 Q1022 TEMPO 23015G25KT 4000 SHRA SCT020TCU

TAF TAF LFRI
Valide du 17 à 12h jusqu'au 18 à 12h UTC


171100Z 1712/1812 24013KT 9999 SCT035
TEMPO 1712/1721 4000 SHRA SCT020CB
TEMPO 1712/1718 23015G30KT



MET'MAP, la Météo Aéronautique d'un coup d'oeil ! - Copyright ORBIFLY Décembre 2007 - Disclaimer

ORBIFLY MET'MAP TEAM :

Programmation & Développement : Alexandra Zaïnal
Sur une idée originale de : Baudouin d'Aumeries
Assistance à la programmation : Marc-Olivier Méhu
Soutien technique & logistique : Manuel Goepfert

Contact : metmap@orbifly.com




SOURCES & CREDITS :

   NOAA